CheckWX is a tool to help pilots better visualize weather data.  It is not intended as a substitute for an official pre-flight weather briefing.

03:45:56 UTC

RKJB TAF
Muan International Airport
South Korea
TAF RKJB 232300Z 2400/2506 21008KT 7000 BKN025 OVC090 TX20/2404Z TN14/2421Z TX21/2505Z TEMPO 2402/2403 4200 -RA BECMG 2411/2412 34006KT 4200 BR SCT025 BKN120 TEMPO 2415/2421 1000 BKN010 BECMG 2422/2423 11006KT 6000 NSW BECMG 2501/2502 34008KT

May-24@
00:00 UTC

May-24 @ 00:00 UTC

May-24@
11:00 UTC

May-24 @ 11:00 UTC

TAF RKJB 232300Z 2400/2506 21008KT 7000 BKN025 OVC090 TX20/2404Z TN14/2421Z TX21/2505Z

Expired

Wind
  • 210° at 8 KTS
Cloud Levels
  • Broken at 2,500' AGL
  • Overcast at 9,000' AGL

May-24@
02:00 UTC

May-24 @ 02:00 UTC

May-24@
03:00 UTC

May-24 @ 03:00 UTC

TEMPO 2402/2403 4200 -RA

Expired

Conditions
Light Rain
Cloud Levels

May-24@
11:00 UTC

May-24 @ 11:00 UTC

May-24@
22:00 UTC

May-24 @ 22:00 UTC

BECMG 2411/2412 34006KT 4200 BR SCT025 BKN120

Expired

Wind
  • 340° at 6 KTS
Conditions
Mist
Cloud Levels
  • Scattered at 2,500' AGL
  • Broken at 12,000' AGL

May-24@
15:00 UTC

May-24 @ 15:00 UTC

May-24@
21:00 UTC

May-24 @ 21:00 UTC

TEMPO 2415/2421 1000 BKN010

Expired

Cloud Levels
  • Broken at 1,000' AGL

May-24@
22:00 UTC

May-24 @ 22:00 UTC

May-25@
01:00 UTC

May-25 @ 01:00 UTC

BECMG 2422/2423 11006KT 6000 NSW

Expired

Wind
  • 110° at 6 KTS
Conditions
No significant weather
Cloud Levels
  • Scattered at 2,500' AGL
  • Broken at 12,000' AGL

May-25@
01:00 UTC

May-25 @ 01:00 UTC

May-25@
06:00 UTC

May-25 @ 06:00 UTC

BECMG 2501/2502 34008KT

Becoming

Becoming Conditions expected by Mon, May 25, 2020 @ 02:00 UTC

Wind
  • 340° at 8 KTS
Conditions
No significant weather
Cloud Levels
  • Scattered at 2,500' AGL
  • Broken at 12,000' AGL